sensor_id;sensor_type;location;lat;lon;timestamp;P1;durP1;ratioP1;P2;durP2;ratioP2
36283;SDS011;56085;48.910;9.478;2023-09-30T00:01:08;7.35;;;2.13;;
36283;SDS011;56085;48.910;9.478;2023-09-30T00:03:35;3.85;;;1.75;;
36283;SDS011;56085;48.910;9.478;2023-09-30T00:06:00;3.80;;;1.60;;
36283;SDS011;56085;48.910;9.478;2023-09-30T00:08:26;6.25;;;2.60;;
36283;SDS011;56085;48.910;9.478;2023-09-30T00:10:52;3.85;;;2.10;;
36283;SDS011;56085;48.910;9.478;2023-09-30T00:13:20;3.45;;;1.70;;
36283;SDS011;56085;48.910;9.478;2023-09-30T00:15:46;5.25;;;1.90;;
36283;SDS011;56085;48.910;9.478;2023-09-30T00:18:12;4.70;;;1.80;;
36283;SDS011;56085;48.910;9.478;2023-09-30T00:20:38;3.70;;;1.67;;
36283;SDS011;56085;48.910;9.478;2023-09-30T00:23:03;4.60;;;1.60;;
36283;SDS011;56085;48.910;9.478;2023-09-30T00:25:31;3.72;;;1.58;;
36283;SDS011;56085;48.910;9.478;2023-09-30T00:27:56;4.10;;;1.80;;
36283;SDS011;56085;48.910;9.478;2023-09-30T00:30:22;3.78;;;1.60;;
36283;SDS011;56085;48.910;9.478;2023-09-30T00:32:47;3.63;;;1.60;;
36283;SDS011;56085;48.910;9.478;2023-09-30T00:35:12;5.97;;;2.20;;
36283;SDS011;56085;48.910;9.478;2023-09-30T00:37:38;3.67;;;1.42;;
36283;SDS011;56085;48.910;9.478;2023-09-30T00:40:04;3.83;;;1.90;;
36283;SDS011;56085;48.910;9.478;2023-09-30T00:42:31;4.53;;;2.03;;
36283;SDS011;56085;48.910;9.478;2023-09-30T00:44:56;5.00;;;1.80;;
36283;SDS011;56085;48.910;9.478;2023-09-30T00:47:22;3.95;;;2.08;;
36283;SDS011;56085;48.910;9.478;2023-09-30T00:49:49;5.00;;;2.03;;
36283;SDS011;56085;48.910;9.478;2023-09-30T00:52:15;3.65;;;2.08;;
36283;SDS011;56085;48.910;9.478;2023-09-30T00:54:41;3.40;;;1.80;;
36283;SDS011;56085;48.910;9.478;2023-09-30T00:57:08;4.05;;;1.90;;
36283;SDS011;56085;48.910;9.478;2023-09-30T00:59:35;4.95;;;2.13;;
36283;SDS011;56085;48.910;9.478;2023-09-30T01:02:01;4.53;;;1.95;;
36283;SDS011;56085;48.910;9.478;2023-09-30T01:04:27;4.55;;;1.85;;
36283;SDS011;56085;48.910;9.478;2023-09-30T01:06:53;7.38;;;1.90;;
36283;SDS011;56085;48.910;9.478;2023-09-30T01:09:18;6.07;;;2.40;;
36283;SDS011;56085;48.910;9.478;2023-09-30T01:11:44;5.97;;;2.85;;
36283;SDS011;56085;48.910;9.478;2023-09-30T01:14:26;3.88;;;2.30;;
36283;SDS011;56085;48.910;9.478;2023-09-30T01:16:55;7.20;;;2.65;;
36283;SDS011;56085;48.910;9.478;2023-09-30T01:19:21;5.63;;;2.45;;
36283;SDS011;56085;48.910;9.478;2023-09-30T01:21:49;5.18;;;2.40;;
36283;SDS011;56085;48.910;9.478;2023-09-30T01:24:14;4.68;;;2.33;;
36283;SDS011;56085;48.910;9.478;2023-09-30T01:26:40;5.82;;;2.33;;
36283;SDS011;56085;48.910;9.478;2023-09-30T01:29:07;3.67;;;1.98;;
36283;SDS011;56085;48.910;9.478;2023-09-30T01:31:36;3.80;;;2.28;;
36283;SDS011;56085;48.910;9.478;2023-09-30T01:34:04;4.45;;;2.22;;
36283;SDS011;56085;48.910;9.478;2023-09-30T01:36:30;4.35;;;2.22;;
36283;SDS011;56085;48.910;9.478;2023-09-30T01:38:55;4.60;;;2.38;;
36283;SDS011;56085;48.910;9.478;2023-09-30T01:41:20;5.72;;;2.38;;
36283;SDS011;56085;48.910;9.478;2023-09-30T01:43:46;5.30;;;2.53;;
36283;SDS011;56085;48.910;9.478;2023-09-30T01:46:12;4.28;;;2.15;;
36283;SDS011;56085;48.910;9.478;2023-09-30T01:48:37;4.00;;;2.22;;
36283;SDS011;56085;48.910;9.478;2023-09-30T01:51:02;4.88;;;2.22;;
36283;SDS011;56085;48.910;9.478;2023-09-30T01:53:28;5.63;;;2.53;;
36283;SDS011;56085;48.910;9.478;2023-09-30T01:55:53;3.72;;;2.42;;
36283;SDS011;56085;48.910;9.478;2023-09-30T01:58:18;4.18;;;2.42;;
36283;SDS011;56085;48.910;9.478;2023-09-30T02:00:43;5.90;;;2.45;;
36283;SDS011;56085;48.910;9.478;2023-09-30T02:03:10;5.07;;;2.30;;
36283;SDS011;56085;48.910;9.478;2023-09-30T02:05:36;6.57;;;2.45;;
36283;SDS011;56085;48.910;9.478;2023-09-30T02:08:03;7.05;;;2.40;;
36283;SDS011;56085;48.910;9.478;2023-09-30T02:10:31;7.07;;;2.70;;
36283;SDS011;56085;48.910;9.478;2023-09-30T02:12:58;6.18;;;2.75;;
36283;SDS011;56085;48.910;9.478;2023-09-30T02:15:24;4.30;;;2.45;;
36283;SDS011;56085;48.910;9.478;2023-09-30T02:17:50;5.15;;;2.40;;
36283;SDS011;56085;48.910;9.478;2023-09-30T02:20:15;5.22;;;3.08;;
36283;SDS011;56085;48.910;9.478;2023-09-30T02:22:44;5.47;;;2.75;;
36283;SDS011;56085;48.910;9.478;2023-09-30T02:25:10;4.35;;;2.35;;
36283;SDS011;56085;48.910;9.478;2023-09-30T02:27:37;6.22;;;2.47;;
36283;SDS011;56085;48.910;9.478;2023-09-30T02:30:04;3.03;;;2.33;;
36283;SDS011;56085;48.910;9.478;2023-09-30T02:32:30;5.40;;;2.80;;
36283;SDS011;56085;48.910;9.478;2023-09-30T02:34:58;4.97;;;2.83;;
36283;SDS011;56085;48.910;9.478;2023-09-30T02:37:23;4.97;;;3.42;;
36283;SDS011;56085;48.910;9.478;2023-09-30T02:39:49;7.75;;;2.88;;
36283;SDS011;56085;48.910;9.478;2023-09-30T02:42:14;6.43;;;3.30;;
36283;SDS011;56085;48.910;9.478;2023-09-30T02:44:40;8.10;;;3.13;;
36283;SDS011;56085;48.910;9.478;2023-09-30T02:47:05;6.03;;;3.28;;
36283;SDS011;56085;48.910;9.478;2023-09-30T02:49:34;5.10;;;2.97;;
36283;SDS011;56085;48.910;9.478;2023-09-30T02:51:59;5.43;;;2.67;;
36283;SDS011;56085;48.910;9.478;2023-09-30T02:54:25;4.68;;;2.90;;
36283;SDS011;56085;48.910;9.478;2023-09-30T02:56:51;6.50;;;3.90;;
36283;SDS011;56085;48.910;9.478;2023-09-30T02:59:17;4.30;;;2.60;;
36283;SDS011;56085;48.910;9.478;2023-09-30T03:01:43;5.03;;;2.88;;
36283;SDS011;56085;48.910;9.478;2023-09-30T03:04:09;6.57;;;2.85;;
36283;SDS011;56085;48.910;9.478;2023-09-30T03:06:34;5.15;;;2.92;;
36283;SDS011;56085;48.910;9.478;2023-09-30T03:09:03;6.35;;;3.17;;
36283;SDS011;56085;48.910;9.478;2023-09-30T03:11:29;6.80;;;2.90;;
36283;SDS011;56085;48.910;9.478;2023-09-30T03:13:55;6.70;;;2.70;;
36283;SDS011;56085;48.910;9.478;2023-09-30T03:16:20;8.00;;;3.58;;
36283;SDS011;56085;48.910;9.478;2023-09-30T03:18:45;5.15;;;3.00;;
36283;SDS011;56085;48.910;9.478;2023-09-30T03:21:14;6.00;;;2.80;;
36283;SDS011;56085;48.910;9.478;2023-09-30T03:23:40;6.10;;;2.85;;
36283;SDS011;56085;48.910;9.478;2023-09-30T03:26:05;4.53;;;2.78;;
36283;SDS011;56085;48.910;9.478;2023-09-30T03:28:34;5.00;;;3.00;;
36283;SDS011;56085;48.910;9.478;2023-09-30T03:31:00;5.72;;;3.45;;
36283;SDS011;56085;48.910;9.478;2023-09-30T03:33:25;4.65;;;3.30;;
36283;SDS011;56085;48.910;9.478;2023-09-30T03:35:51;5.95;;;2.78;;
36283;SDS011;56085;48.910;9.478;2023-09-30T03:38:17;6.13;;;2.80;;
36283;SDS011;56085;48.910;9.478;2023-09-30T03:40:45;8.50;;;2.92;;
36283;SDS011;56085;48.910;9.478;2023-09-30T03:43:13;4.90;;;3.10;;
36283;SDS011;56085;48.910;9.478;2023-09-30T03:45:41;7.72;;;3.13;;
36283;SDS011;56085;48.910;9.478;2023-09-30T03:48:07;5.30;;;3.20;;
36283;SDS011;56085;48.910;9.478;2023-09-30T03:50:32;5.63;;;3.30;;
36283;SDS011;56085;48.910;9.478;2023-09-30T03:53:04;6.72;;;3.28;;
36283;SDS011;56085;48.910;9.478;2023-09-30T03:55:32;5.35;;;2.80;;
36283;SDS011;56085;48.910;9.478;2023-09-30T03:57:58;5.60;;;2.80;;
36283;SDS011;56085;48.910;9.478;2023-09-30T04:00:23;6.18;;;3.50;;
36283;SDS011;56085;48.910;9.478;2023-09-30T04:02:49;5.22;;;2.85;;
36283;SDS011;56085;48.910;9.478;2023-09-30T04:05:19;7.30;;;3.20;;
36283;SDS011;56085;48.910;9.478;2023-09-30T04:07:44;6.50;;;3.50;;
36283;SDS011;56085;48.910;9.478;2023-09-30T04:10:10;8.75;;;3.83;;
36283;SDS011;56085;48.910;9.478;2023-09-30T04:12:35;7.93;;;3.40;;
36283;SDS011;56085;48.910;9.478;2023-09-30T04:15:02;6.72;;;3.55;;
36283;SDS011;56085;48.910;9.478;2023-09-30T04:17:28;9.27;;;3.83;;
36283;SDS011;56085;48.910;9.478;2023-09-30T04:19:54;7.10;;;3.72;;
36283;SDS011;56085;48.910;9.478;2023-09-30T04:22:19;5.47;;;3.42;;
36283;SDS011;56085;48.910;9.478;2023-09-30T04:24:46;10.23;;;3.80;;
36283;SDS011;56085;48.910;9.478;2023-09-30T04:27:11;8.25;;;3.95;;
36283;SDS011;56085;48.910;9.478;2023-09-30T04:29:36;6.40;;;3.10;;
36283;SDS011;56085;48.910;9.478;2023-09-30T04:32:02;6.20;;;3.10;;
36283;SDS011;56085;48.910;9.478;2023-09-30T04:34:29;6.80;;;2.92;;
36283;SDS011;56085;48.910;9.478;2023-09-30T04:36:55;10.35;;;3.72;;
36283;SDS011;56085;48.910;9.478;2023-09-30T04:39:21;8.52;;;3.70;;
36283;SDS011;56085;48.910;9.478;2023-09-30T04:41:46;5.68;;;3.63;;
36283;SDS011;56085;48.910;9.478;2023-09-30T04:44:12;7.10;;;3.28;;
36283;SDS011;56085;48.910;9.478;2023-09-30T04:46:37;8.30;;;3.85;;
36283;SDS011;56085;48.910;9.478;2023-09-30T04:49:06;7.72;;;3.78;;
36283;SDS011;56085;48.910;9.478;2023-09-30T04:51:32;7.60;;;3.88;;
36283;SDS011;56085;48.910;9.478;2023-09-30T04:53:58;6.97;;;4.00;;
36283;SDS011;56085;48.910;9.478;2023-09-30T04:56:24;9.52;;;4.15;;
36283;SDS011;56085;48.910;9.478;2023-09-30T04:58:50;7.45;;;3.63;;
36283;SDS011;56085;48.910;9.478;2023-09-30T05:01:15;7.43;;;3.85;;
36283;SDS011;56085;48.910;9.478;2023-09-30T05:03:43;7.18;;;2.95;;
36283;SDS011;56085;48.910;9.478;2023-09-30T05:06:09;6.07;;;3.20;;
36283;SDS011;56085;48.910;9.478;2023-09-30T05:08:34;7.03;;;2.85;;
36283;SDS011;56085;48.910;9.478;2023-09-30T05:11:00;7.82;;;3.13;;
36283;SDS011;56085;48.910;9.478;2023-09-30T05:13:26;6.78;;;3.42;;
36283;SDS011;56085;48.910;9.478;2023-09-30T05:15:51;4.55;;;2.78;;
36283;SDS011;56085;48.910;9.478;2023-09-30T05:18:17;5.97;;;3.30;;
36283;SDS011;56085;48.910;9.478;2023-09-30T05:20:42;8.18;;;3.50;;
36283;SDS011;56085;48.910;9.478;2023-09-30T05:23:08;5.18;;;3.20;;
36283;SDS011;56085;48.910;9.478;2023-09-30T05:25:37;6.63;;;3.83;;
36283;SDS011;56085;48.910;9.478;2023-09-30T05:28:03;6.40;;;3.20;;
36283;SDS011;56085;48.910;9.478;2023-09-30T05:30:28;6.50;;;3.42;;
36283;SDS011;56085;48.910;9.478;2023-09-30T05:32:54;6.38;;;3.17;;
36283;SDS011;56085;48.910;9.478;2023-09-30T05:35:20;5.25;;;3.22;;
36283;SDS011;56085;48.910;9.478;2023-09-30T05:37:47;5.82;;;3.55;;
36283;SDS011;56085;48.910;9.478;2023-09-30T05:40:12;5.63;;;3.55;;
36283;SDS011;56085;48.910;9.478;2023-09-30T05:42:51;6.30;;;3.80;;
36283;SDS011;56085;48.910;9.478;2023-09-30T05:45:18;8.43;;;4.18;;
36283;SDS011;56085;48.910;9.478;2023-09-30T05:47:43;5.15;;;3.45;;
36283;SDS011;56085;48.910;9.478;2023-09-30T05:50:09;5.15;;;3.58;;
36283;SDS011;56085;48.910;9.478;2023-09-30T05:52:39;7.93;;;4.03;;
36283;SDS011;56085;48.910;9.478;2023-09-30T05:55:05;8.15;;;4.07;;
36283;SDS011;56085;48.910;9.478;2023-09-30T05:57:31;9.20;;;4.53;;
36283;SDS011;56085;48.910;9.478;2023-09-30T05:59:57;7.68;;;4.57;;
36283;SDS011;56085;48.910;9.478;2023-09-30T06:02:23;7.47;;;4.30;;
36283;SDS011;56085;48.910;9.478;2023-09-30T06:04:48;7.25;;;3.63;;
36283;SDS011;56085;48.910;9.478;2023-09-30T06:07:15;6.85;;;4.28;;
36283;SDS011;56085;48.910;9.478;2023-09-30T06:09:41;6.10;;;3.53;;
36283;SDS011;56085;48.910;9.478;2023-09-30T06:12:06;4.70;;;3.83;;
36283;SDS011;56085;48.910;9.478;2023-09-30T06:14:32;8.90;;;4.22;;
36283;SDS011;56085;48.910;9.478;2023-09-30T06:16:57;6.32;;;3.72;;
36283;SDS011;56085;48.910;9.478;2023-09-30T06:19:23;6.47;;;3.45;;
36283;SDS011;56085;48.910;9.478;2023-09-30T06:21:50;8.60;;;4.15;;
36283;SDS011;56085;48.910;9.478;2023-09-30T06:24:16;6.72;;;3.95;;
36283;SDS011;56085;48.910;9.478;2023-09-30T06:26:41;6.18;;;3.88;;
36283;SDS011;56085;48.910;9.478;2023-09-30T06:29:07;7.63;;;4.50;;
36283;SDS011;56085;48.910;9.478;2023-09-30T06:31:32;5.43;;;3.72;;
36283;SDS011;56085;48.910;9.478;2023-09-30T06:33:59;7.25;;;3.55;;
36283;SDS011;56085;48.910;9.478;2023-09-30T06:36:25;8.00;;;4.35;;
36283;SDS011;56085;48.910;9.478;2023-09-30T06:38:50;9.25;;;4.90;;
36283;SDS011;56085;48.910;9.478;2023-09-30T06:41:17;6.85;;;4.10;;
36283;SDS011;56085;48.910;9.478;2023-09-30T06:43:43;6.53;;;4.13;;
36283;SDS011;56085;48.910;9.478;2023-09-30T06:46:09;8.95;;;4.95;;
36283;SDS011;56085;48.910;9.478;2023-09-30T06:48:34;7.57;;;3.78;;
36283;SDS011;56085;48.910;9.478;2023-09-30T06:51:00;7.22;;;4.65;;
36283;SDS011;56085;48.910;9.478;2023-09-30T06:53:26;6.20;;;4.22;;
36283;SDS011;56085;48.910;9.478;2023-09-30T06:55:52;8.57;;;4.00;;
36283;SDS011;56085;48.910;9.478;2023-09-30T06:58:17;7.07;;;3.15;;
36283;SDS011;56085;48.910;9.478;2023-09-30T07:00:46;6.55;;;3.38;;
36283;SDS011;56085;48.910;9.478;2023-09-30T07:03:15;5.78;;;3.55;;
36283;SDS011;56085;48.910;9.478;2023-09-30T07:05:41;7.43;;;4.07;;
36283;SDS011;56085;48.910;9.478;2023-09-30T07:08:06;7.40;;;4.15;;
36283;SDS011;56085;48.910;9.478;2023-09-30T07:10:32;9.70;;;4.78;;
36283;SDS011;56085;48.910;9.478;2023-09-30T07:12:57;10.50;;;5.05;;
36283;SDS011;56085;48.910;9.478;2023-09-30T07:15:22;7.32;;;4.60;;
36283;SDS011;56085;48.910;9.478;2023-09-30T07:17:48;8.38;;;4.10;;
36283;SDS011;56085;48.910;9.478;2023-09-30T07:20:14;7.18;;;4.45;;
36283;SDS011;56085;48.910;9.478;2023-09-30T07:22:39;6.40;;;4.45;;
36283;SDS011;56085;48.910;9.478;2023-09-30T07:25:05;6.70;;;4.38;;
36283;SDS011;56085;48.910;9.478;2023-09-30T07:27:31;7.95;;;4.57;;
36283;SDS011;56085;48.910;9.478;2023-09-30T07:29:57;9.43;;;4.47;;
36283;SDS011;56085;48.910;9.478;2023-09-30T07:32:22;10.10;;;5.38;;
36283;SDS011;56085;48.910;9.478;2023-09-30T07:34:48;11.05;;;5.53;;
36283;SDS011;56085;48.910;9.478;2023-09-30T07:37:14;7.45;;;4.85;;
36283;SDS011;56085;48.910;9.478;2023-09-30T07:39:39;7.95;;;4.88;;
36283;SDS011;56085;48.910;9.478;2023-09-30T07:42:05;9.07;;;4.45;;
36283;SDS011;56085;48.910;9.478;2023-09-30T07:44:30;10.40;;;4.80;;
36283;SDS011;56085;48.910;9.478;2023-09-30T07:46:57;10.55;;;5.10;;
36283;SDS011;56085;48.910;9.478;2023-09-30T07:49:23;6.88;;;4.68;;
36283;SDS011;56085;48.910;9.478;2023-09-30T07:51:49;8.63;;;5.45;;
36283;SDS011;56085;48.910;9.478;2023-09-30T07:54:14;7.45;;;5.25;;
36283;SDS011;56085;48.910;9.478;2023-09-30T07:56:40;7.50;;;4.55;;
36283;SDS011;56085;48.910;9.478;2023-09-30T07:59:05;10.68;;;5.32;;
36283;SDS011;56085;48.910;9.478;2023-09-30T08:01:31;14.13;;;5.63;;
36283;SDS011;56085;48.910;9.478;2023-09-30T08:03:56;7.10;;;4.72;;
36283;SDS011;56085;48.910;9.478;2023-09-30T08:06:22;8.50;;;5.78;;
36283;SDS011;56085;48.910;9.478;2023-09-30T08:08:48;7.00;;;4.47;;
36283;SDS011;56085;48.910;9.478;2023-09-30T08:11:14;8.98;;;5.22;;
36283;SDS011;56085;48.910;9.478;2023-09-30T08:13:40;7.70;;;4.93;;
36283;SDS011;56085;48.910;9.478;2023-09-30T08:16:05;7.80;;;4.78;;
36283;SDS011;56085;48.910;9.478;2023-09-30T08:18:30;13.43;;;5.47;;
36283;SDS011;56085;48.910;9.478;2023-09-30T08:20:55;9.98;;;5.65;;
36283;SDS011;56085;48.910;9.478;2023-09-30T08:23:21;14.82;;;5.78;;
36283;SDS011;56085;48.910;9.478;2023-09-30T08:25:46;10.02;;;5.70;;
36283;SDS011;56085;48.910;9.478;2023-09-30T08:28:12;10.13;;;4.68;;
36283;SDS011;56085;48.910;9.478;2023-09-30T08:30:37;10.15;;;4.80;;
36283;SDS011;56085;48.910;9.478;2023-09-30T08:33:03;8.57;;;5.05;;
36283;SDS011;56085;48.910;9.478;2023-09-30T08:35:38;8.43;;;4.82;;
36283;SDS011;56085;48.910;9.478;2023-09-30T08:38:03;9.40;;;4.80;;
36283;SDS011;56085;48.910;9.478;2023-09-30T08:40:29;8.63;;;4.22;;
36283;SDS011;56085;48.910;9.478;2023-09-30T08:42:55;10.55;;;4.75;;
36283;SDS011;56085;48.910;9.478;2023-09-30T08:45:20;7.63;;;4.65;;
36283;SDS011;56085;48.910;9.478;2023-09-30T08:47:46;6.82;;;4.32;;
36283;SDS011;56085;48.910;9.478;2023-09-30T08:50:12;11.00;;;4.57;;
36283;SDS011;56085;48.910;9.478;2023-09-30T08:52:38;10.23;;;4.35;;
36283;SDS011;56085;48.910;9.478;2023-09-30T08:55:06;10.90;;;4.13;;
36283;SDS011;56085;48.910;9.478;2023-09-30T08:57:39;7.28;;;4.32;;
36283;SDS011;56085;48.910;9.478;2023-09-30T09:00:10;9.35;;;4.75;;
36283;SDS011;56085;48.910;9.478;2023-09-30T09:02:37;7.85;;;3.63;;
36283;SDS011;56085;48.910;9.478;2023-09-30T09:05:03;10.10;;;4.15;;
36283;SDS011;56085;48.910;9.478;2023-09-30T09:07:29;7.80;;;4.07;;
36283;SDS011;56085;48.910;9.478;2023-09-30T09:10:05;10.35;;;4.90;;
36283;SDS011;56085;48.910;9.478;2023-09-30T09:12:36;10.63;;;4.43;;
36283;SDS011;56085;48.910;9.478;2023-09-30T09:15:04;7.88;;;4.07;;
36283;SDS011;56085;48.910;9.478;2023-09-30T09:17:44;10.02;;;3.83;;
36283;SDS011;56085;48.910;9.478;2023-09-30T09:20:11;7.72;;;4.25;;
36283;SDS011;56085;48.910;9.478;2023-09-30T09:22:43;7.35;;;3.63;;
36283;SDS011;56085;48.910;9.478;2023-09-30T09:25:09;7.38;;;3.45;;
36283;SDS011;56085;48.910;9.478;2023-09-30T09:27:36;6.63;;;3.88;;
36283;SDS011;56085;48.910;9.478;2023-09-30T09:30:15;6.85;;;3.58;;
36283;SDS011;56085;48.910;9.478;2023-09-30T09:33:00;7.68;;;3.90;;
36283;SDS011;56085;48.910;9.478;2023-09-30T09:35:30;7.57;;;4.07;;
36283;SDS011;56085;48.910;9.478;2023-09-30T09:37:58;7.53;;;3.80;;
36283;SDS011;56085;48.910;9.478;2023-09-30T09:40:29;7.90;;;4.20;;
36283;SDS011;56085;48.910;9.478;2023-09-30T09:42:56;7.13;;;3.60;;
36283;SDS011;56085;48.910;9.478;2023-09-30T09:45:23;6.82;;;3.22;;
36283;SDS011;56085;48.910;9.478;2023-09-30T09:47:49;8.30;;;4.38;;
36283;SDS011;56085;48.910;9.478;2023-09-30T09:50:16;9.55;;;3.95;;
36283;SDS011;56085;48.910;9.478;2023-09-30T09:52:42;6.88;;;3.80;;
36283;SDS011;56085;48.910;9.478;2023-09-30T09:55:12;6.13;;;3.72;;
36283;SDS011;56085;48.910;9.478;2023-09-30T09:57:40;9.50;;;4.22;;
36283;SDS011;56085;48.910;9.478;2023-09-30T10:00:08;8.50;;;3.85;;
36283;SDS011;56085;48.910;9.478;2023-09-30T10:02:39;9.65;;;4.13;;
36283;SDS011;56085;48.910;9.478;2023-09-30T10:05:06;5.93;;;3.20;;
36283;SDS011;56085;48.910;9.478;2023-09-30T10:08:15;9.23;;;4.05;;
36283;SDS011;56085;48.910;9.478;2023-09-30T10:10:30;5.82;;;3.38;;
36283;SDS011;56085;48.910;9.478;2023-09-30T10:13:00;9.00;;;4.25;;
36283;SDS011;56085;48.910;9.478;2023-09-30T10:18:06;5.90;;;2.88;;
36283;SDS011;56085;48.910;9.478;2023-09-30T10:20:33;6.85;;;3.85;;
36283;SDS011;56085;48.910;9.478;2023-09-30T10:25:55;5.20;;;3.05;;
36283;SDS011;56085;48.910;9.478;2023-09-30T10:28:40;6.60;;;2.80;;
36283;SDS011;56085;48.910;9.478;2023-09-30T10:31:14;8.38;;;3.35;;
36283;SDS011;56085;48.910;9.478;2023-09-30T10:36:28;7.75;;;3.25;;
36283;SDS011;56085;48.910;9.478;2023-09-30T10:38:55;8.82;;;3.60;;
36283;SDS011;56085;48.910;9.478;2023-09-30T10:46:47;6.93;;;3.45;;
36283;SDS011;56085;48.910;9.478;2023-09-30T10:51:48;10.57;;;3.53;;
36283;SDS011;56085;48.910;9.478;2023-09-30T10:54:15;5.80;;;3.20;;
36283;SDS011;56085;48.910;9.478;2023-09-30T10:56:50;7.18;;;3.40;;
36283;SDS011;56085;48.910;9.478;2023-09-30T10:59:23;6.15;;;3.38;;
36283;SDS011;56085;48.910;9.478;2023-09-30T11:01:50;9.00;;;3.72;;
36283;SDS011;56085;48.910;9.478;2023-09-30T11:04:17;8.93;;;3.70;;
36283;SDS011;56085;48.910;9.478;2023-09-30T11:06:44;8.63;;;3.42;;
36283;SDS011;56085;48.910;9.478;2023-09-30T11:09:14;6.57;;;3.35;;
36283;SDS011;56085;48.910;9.478;2023-09-30T11:14:25;7.43;;;3.80;;
36283;SDS011;56085;48.910;9.478;2023-09-30T11:16:53;6.28;;;3.67;;
36283;SDS011;56085;48.910;9.478;2023-09-30T11:19:20;6.93;;;3.10;;
36283;SDS011;56085;48.910;9.478;2023-09-30T11:21:46;6.43;;;3.28;;
36283;SDS011;56085;48.910;9.478;2023-09-30T11:24:16;7.82;;;3.42;;
36283;SDS011;56085;48.910;9.478;2023-09-30T11:26:42;6.45;;;3.22;;
36283;SDS011;56085;48.910;9.478;2023-09-30T11:29:14;8.07;;;3.65;;
36283;SDS011;56085;48.910;9.478;2023-09-30T11:31:42;7.65;;;3.60;;
36283;SDS011;56085;48.910;9.478;2023-09-30T11:34:09;6.10;;;3.78;;
36283;SDS011;56085;48.910;9.478;2023-09-30T11:36:37;5.95;;;3.00;;
36283;SDS011;56085;48.910;9.478;2023-09-30T11:39:04;7.78;;;4.15;;
36283;SDS011;56085;48.910;9.478;2023-09-30T11:41:37;6.03;;;3.47;;
36283;SDS011;56085;48.910;9.478;2023-09-30T11:44:09;8.35;;;3.70;;
36283;SDS011;56085;48.910;9.478;2023-09-30T11:49:45;9.18;;;4.25;;
36283;SDS011;56085;48.910;9.478;2023-09-30T11:52:25;7.38;;;3.47;;
36283;SDS011;56085;48.910;9.478;2023-09-30T11:54:51;9.85;;;4.07;;
36283;SDS011;56085;48.910;9.478;2023-09-30T11:57:17;7.78;;;3.47;;
36283;SDS011;56085;48.910;9.478;2023-09-30T11:59:43;7.97;;;3.88;;
36283;SDS011;56085;48.910;9.478;2023-09-30T12:02:10;8.55;;;3.67;;
36283;SDS011;56085;48.910;9.478;2023-09-30T12:04:36;8.95;;;3.92;;
36283;SDS011;56085;48.910;9.478;2023-09-30T12:07:04;9.13;;;4.25;;
36283;SDS011;56085;48.910;9.478;2023-09-30T12:09:32;9.70;;;4.53;;
36283;SDS011;56085;48.910;9.478;2023-09-30T12:11:57;9.48;;;4.50;;
36283;SDS011;56085;48.910;9.478;2023-09-30T12:14:23;7.47;;;4.05;;
36283;SDS011;56085;48.910;9.478;2023-09-30T12:16:49;7.63;;;3.75;;
36283;SDS011;56085;48.910;9.478;2023-09-30T12:19:15;8.23;;;3.97;;
36283;SDS011;56085;48.910;9.478;2023-09-30T12:21:43;8.18;;;3.78;;
36283;SDS011;56085;48.910;9.478;2023-09-30T12:24:11;9.43;;;4.60;;
36283;SDS011;56085;48.910;9.478;2023-09-30T12:26:41;8.30;;;3.45;;
36283;SDS011;56085;48.910;9.478;2023-09-30T12:29:06;7.25;;;3.65;;
36283;SDS011;56085;48.910;9.478;2023-09-30T12:31:34;9.18;;;3.55;;
36283;SDS011;56085;48.910;9.478;2023-09-30T12:33:59;7.70;;;3.95;;
36283;SDS011;56085;48.910;9.478;2023-09-30T12:36:24;9.10;;;3.83;;
36283;SDS011;56085;48.910;9.478;2023-09-30T12:38:50;9.75;;;4.45;;
36283;SDS011;56085;48.910;9.478;2023-09-30T12:41:15;9.50;;;3.65;;
36283;SDS011;56085;48.910;9.478;2023-09-30T12:43:40;11.70;;;4.20;;
36283;SDS011;56085;48.910;9.478;2023-09-30T12:46:08;7.70;;;4.00;;
36283;SDS011;56085;48.910;9.478;2023-09-30T12:48:34;6.45;;;3.85;;
36283;SDS011;56085;48.910;9.478;2023-09-30T12:50:59;9.27;;;4.30;;
36283;SDS011;56085;48.910;9.478;2023-09-30T12:53:25;6.77;;;3.50;;
36283;SDS011;56085;48.910;9.478;2023-09-30T12:55:50;10.48;;;4.57;;
36283;SDS011;56085;48.910;9.478;2023-09-30T12:58:15;9.63;;;4.43;;
36283;SDS011;56085;48.910;9.478;2023-09-30T13:00:41;10.63;;;4.65;;
36283;SDS011;56085;48.910;9.478;2023-09-30T13:03:06;8.52;;;4.93;;
36283;SDS011;56085;48.910;9.478;2023-09-30T13:05:32;6.68;;;4.10;;
36283;SDS011;56085;48.910;9.478;2023-09-30T13:07:58;6.10;;;3.72;;
36283;SDS011;56085;48.910;9.478;2023-09-30T13:10:23;8.77;;;4.85;;
36283;SDS011;56085;48.910;9.478;2023-09-30T13:12:49;10.18;;;5.15;;
36283;SDS011;56085;48.910;9.478;2023-09-30T13:15:18;9.60;;;4.82;;
36283;SDS011;56085;48.910;9.478;2023-09-30T13:17:44;9.60;;;5.07;;
36283;SDS011;56085;48.910;9.478;2023-09-30T13:20:10;7.47;;;4.20;;
36283;SDS011;56085;48.910;9.478;2023-09-30T13:22:37;7.97;;;5.25;;
36283;SDS011;56085;48.910;9.478;2023-09-30T13:25:03;8.25;;;4.53;;
36283;SDS011;56085;48.910;9.478;2023-09-30T13:27:33;8.82;;;5.15;;
36283;SDS011;56085;48.910;9.478;2023-09-30T13:29:59;10.18;;;4.15;;
36283;SDS011;56085;48.910;9.478;2023-09-30T13:32:24;7.75;;;4.80;;
36283;SDS011;56085;48.910;9.478;2023-09-30T13:34:50;8.43;;;4.55;;
36283;SDS011;56085;48.910;9.478;2023-09-30T13:37:16;11.27;;;4.78;;
36283;SDS011;56085;48.910;9.478;2023-09-30T13:39:42;7.57;;;4.90;;
36283;SDS011;56085;48.910;9.478;2023-09-30T13:42:07;8.65;;;4.68;;
36283;SDS011;56085;48.910;9.478;2023-09-30T13:44:33;8.67;;;4.47;;
36283;SDS011;56085;48.910;9.478;2023-09-30T13:46:58;8.07;;;4.65;;
36283;SDS011;56085;48.910;9.478;2023-09-30T13:49:23;9.35;;;4.75;;
36283;SDS011;56085;48.910;9.478;2023-09-30T13:51:49;9.57;;;4.93;;
36283;SDS011;56085;48.910;9.478;2023-09-30T13:54:14;7.22;;;4.18;;
36283;SDS011;56085;48.910;9.478;2023-09-30T13:56:40;6.97;;;4.30;;
36283;SDS011;56085;48.910;9.478;2023-09-30T13:59:05;8.82;;;4.15;;
36283;SDS011;56085;48.910;9.478;2023-09-30T14:01:31;8.65;;;4.55;;
36283;SDS011;56085;48.910;9.478;2023-09-30T14:03:56;9.02;;;4.20;;
36283;SDS011;56085;48.910;9.478;2023-09-30T14:06:23;7.55;;;4.53;;
36283;SDS011;56085;48.910;9.478;2023-09-30T14:08:48;9.43;;;3.95;;
36283;SDS011;56085;48.910;9.478;2023-09-30T14:11:14;5.30;;;3.50;;
36283;SDS011;56085;48.910;9.478;2023-09-30T14:13:39;7.03;;;4.22;;
36283;SDS011;56085;48.910;9.478;2023-09-30T14:16:05;6.85;;;3.97;;
36283;SDS011;56085;48.910;9.478;2023-09-30T14:18:31;8.13;;;4.75;;
36283;SDS011;56085;48.910;9.478;2023-09-30T14:20:57;9.18;;;4.07;;
36283;SDS011;56085;48.910;9.478;2023-09-30T14:23:22;7.95;;;3.90;;
36283;SDS011;56085;48.910;9.478;2023-09-30T14:25:48;7.53;;;4.38;;
36283;SDS011;56085;48.910;9.478;2023-09-30T14:28:14;6.75;;;3.88;;
36283;SDS011;56085;48.910;9.478;2023-09-30T14:30:39;8.68;;;4.13;;
36283;SDS011;56085;48.910;9.478;2023-09-30T14:33:04;8.07;;;4.00;;
36283;SDS011;56085;48.910;9.478;2023-09-30T14:35:32;8.17;;;3.80;;
36283;SDS011;56085;48.910;9.478;2023-09-30T14:37:58;8.27;;;4.50;;
36283;SDS011;56085;48.910;9.478;2023-09-30T14:40:23;8.10;;;4.25;;
36283;SDS011;56085;48.910;9.478;2023-09-30T14:42:48;9.17;;;4.30;;
36283;SDS011;56085;48.910;9.478;2023-09-30T14:45:14;7.82;;;4.25;;
36283;SDS011;56085;48.910;9.478;2023-09-30T14:47:39;8.00;;;3.83;;
36283;SDS011;56085;48.910;9.478;2023-09-30T14:50:08;12.80;;;4.00;;
36283;SDS011;56085;48.910;9.478;2023-09-30T14:52:33;8.70;;;4.50;;
36283;SDS011;56085;48.910;9.478;2023-09-30T14:54:59;7.47;;;4.15;;
36283;SDS011;56085;48.910;9.478;2023-09-30T14:57:25;9.10;;;4.25;;
36283;SDS011;56085;48.910;9.478;2023-09-30T14:59:50;8.25;;;4.20;;
36283;SDS011;56085;48.910;9.478;2023-09-30T15:02:16;8.88;;;4.50;;
36283;SDS011;56085;48.910;9.478;2023-09-30T15:04:41;7.70;;;4.00;;